createdAt,value
2016-11-21T00:00:23.568Z,8.37
2016-11-21T00:01:32.214Z,8.23
2016-11-21T00:02:40.842Z,8.25
2016-11-21T00:03:49.462Z,8.11
2016-11-21T00:04:58.111Z,8.05
2016-11-21T00:06:06.756Z,8.04
2016-11-21T00:07:15.400Z,8
2016-11-21T00:08:24.021Z,8.04
2016-11-21T00:09:32.615Z,8.1
2016-11-21T00:10:41.213Z,7.98
2016-11-21T00:11:49.829Z,8.02
2016-11-21T00:12:58.445Z,7.97
2016-11-21T00:14:07.070Z,7.93
2016-11-21T00:15:15.691Z,7.98
2016-11-21T00:16:24.292Z,8.08
2016-11-21T00:17:32.908Z,7.95
2016-11-21T00:18:41.555Z,7.95
2016-11-21T00:19:50.176Z,7.92
2016-11-21T00:20:58.779Z,7.82
2016-11-21T00:22:07.400Z,7.79
2016-11-21T00:23:16.042Z,7.77
2016-11-21T00:24:24.690Z,7.8
2016-11-21T00:25:33.331Z,7.77
2016-11-21T00:26:41.960Z,7.8
2016-11-21T00:27:50.582Z,7.77
2016-11-21T00:28:59.246Z,7.83
2016-11-21T00:30:07.861Z,7.86
2016-11-21T00:31:16.465Z,7.97
2016-11-21T00:32:25.083Z,7.85
2016-11-21T00:33:33.711Z,7.92
2016-11-21T00:34:42.346Z,7.92
2016-11-21T00:35:50.974Z,7.95
2016-11-21T00:36:59.592Z,7.9
2016-11-21T00:38:08.216Z,7.89
2016-11-21T00:39:16.830Z,8.02
2016-11-21T00:40:25.433Z,8.02
2016-11-21T00:41:34.051Z,8.02
2016-11-21T00:42:42.681Z,7.89
2016-11-21T00:43:51.303Z,7.87
2016-11-21T00:44:59.940Z,7.86
2016-11-21T00:46:08.540Z,7.92
2016-11-21T00:47:17.195Z,7.86
2016-11-21T00:48:25.832Z,7.92
2016-11-21T00:49:34.445Z,7.92
2016-11-21T00:50:43.075Z,7.9
2016-11-21T00:51:51.692Z,7.93
2016-11-21T00:53:00.333Z,7.89
2016-11-21T00:54:09.005Z,8
2016-11-21T00:55:17.630Z,7.98
2016-11-21T00:56:26.258Z,8.08
2016-11-21T00:57:34.893Z,8.18
2016-11-21T00:58:43.524Z,8.22
2016-11-21T00:59:52.143Z,8.16
2016-11-21T01:01:00.767Z,8.3
2016-11-21T01:02:09.403Z,8.29
2016-11-21T01:03:18.028Z,8.33
2016-11-21T01:04:26.656Z,8.33
2016-11-21T01:05:35.293Z,8.3
2016-11-21T01:06:43.912Z,8.29
2016-11-21T01:07:52.537Z,8.26
2016-11-21T01:09:01.139Z,8.41
2016-11-21T01:10:09.780Z,8.38
2016-11-21T01:11:18.408Z,8.43
2016-11-21T01:12:27.030Z,8.38
2016-11-21T01:13:35.648Z,8.38
2016-11-21T01:14:44.268Z,8.5
2016-11-21T01:15:52.911Z,8.5
2016-11-21T01:17:01.553Z,8.55
2016-11-21T01:18:10.174Z,8.52
2016-11-21T01:19:18.800Z,8.5
2016-11-21T01:20:27.453Z,8.47
2016-11-21T01:21:36.095Z,8.52
2016-11-21T01:22:44.724Z,8.47
2016-11-21T01:23:53.359Z,8.47
2016-11-21T01:25:01.976Z,8.5
2016-11-21T01:26:10.622Z,8.4
2016-11-21T01:27:19.254Z,8.34
2016-11-21T01:28:27.864Z,8.4
2016-11-21T01:29:36.515Z,8.36
2016-11-21T01:30:45.118Z,8.47
2016-11-21T01:31:53.757Z,8.5
2016-11-21T01:33:02.375Z,8.44
2016-11-21T01:34:11.002Z,8.47
2016-11-21T01:35:19.616Z,8.47
2016-11-21T01:36:28.296Z,8.47
2016-11-21T01:37:36.912Z,8.48
2016-11-21T01:38:45.537Z,8.41
2016-11-21T01:39:54.159Z,8.5
2016-11-21T01:41:02.797Z,8.5
2016-11-21T01:42:11.456Z,8.52
2016-11-21T01:43:20.119Z,8.43
2016-11-21T01:44:28.764Z,8.43
2016-11-21T01:45:37.386Z,8.47
2016-11-21T01:46:45.989Z,8.45
2016-11-21T01:47:54.678Z,8.38
2016-11-21T01:49:03.320Z,8.26
2016-11-21T01:50:11.928Z,8.38
2016-11-21T01:51:20.569Z,8.4
2016-11-21T01:52:29.183Z,8.41
2016-11-21T01:53:37.829Z,8.43
2016-11-21T01:54:46.480Z,8.4
2016-11-21T01:55:55.112Z,8.25
2016-11-21T01:57:03.752Z,8.34
2016-11-21T01:58:12.389Z,8.28
2016-11-21T01:59:21.011Z,8.26
2016-11-21T02:00:29.616Z,8.15
2016-11-21T02:01:38.260Z,8.19
2016-11-21T02:02:46.901Z,8.16
2016-11-21T02:03:55.506Z,8.11
2016-11-21T02:05:04.152Z,8.1
2016-11-21T02:06:12.788Z,8.19
2016-11-21T02:07:21.442Z,8.2
2016-11-21T02:08:30.054Z,8.19
2016-11-21T02:09:38.683Z,8.15
2016-11-21T02:10:47.647Z,8.07
2016-11-21T02:11:56.272Z,8.1
2016-11-21T02:13:04.901Z,8.2
2016-11-21T02:14:13.518Z,8.11
2016-11-21T02:15:22.134Z,8.16
2016-11-21T02:16:30.760Z,8.29
2016-11-21T02:17:39.381Z,8.34
2016-11-21T02:18:48.004Z,8.34
2016-11-21T02:19:56.615Z,8.23
2016-11-21T02:21:05.269Z,8.19
2016-11-21T02:22:13.893Z,8.19
2016-11-21T02:23:22.520Z,8.08
2016-11-21T02:24:31.150Z,8.11
2016-11-21T02:25:39.783Z,8.16
2016-11-21T02:26:48.426Z,8.1
2016-11-21T02:27:57.093Z,8.12
2016-11-21T02:29:05.739Z,8.18
2016-11-21T02:30:14.390Z,8.18
2016-11-21T02:31:23.052Z,8.07
2016-11-21T02:32:31.702Z,8.04
2016-11-21T02:33:40.331Z,7.95
2016-11-21T02:34:48.983Z,7.9
2016-11-21T02:35:57.624Z,7.92
2016-11-21T02:37:06.262Z,7.89
2016-11-21T02:38:14.908Z,7.89
2016-11-21T02:39:23.561Z,7.9
2016-11-21T02:40:32.196Z,7.83
2016-11-21T02:41:40.825Z,7.82
2016-11-21T02:42:49.448Z,7.75
2016-11-21T02:43:58.089Z,7.69
2016-11-21T02:45:06.718Z,7.69
2016-11-21T02:46:15.340Z,7.43
2016-11-21T02:47:23.977Z,7.48
2016-11-21T02:48:32.627Z,7.43
2016-11-21T02:49:41.253Z,7.28
2016-11-21T02:50:49.916Z,7.31
2016-11-21T02:51:58.532Z,7.21
2016-11-21T02:53:07.153Z,7.25
2016-11-21T02:54:15.802Z,7.28
2016-11-21T02:55:24.421Z,7.24
2016-11-21T02:56:33.042Z,7.23
2016-11-21T02:57:41.668Z,7.15
2016-11-21T02:58:50.291Z,7.09
2016-11-21T02:59:58.913Z,7.02
2016-11-21T03:01:07.826Z,6.95
2016-11-21T03:02:16.448Z,6.98
2016-11-21T03:03:25.098Z,7.07
2016-11-21T03:04:33.755Z,7.15
2016-11-21T03:05:42.370Z,7.02
2016-11-21T03:06:50.987Z,7.03
2016-11-21T03:07:59.603Z,7.03
2016-11-21T03:09:08.253Z,6.94
2016-11-21T03:10:16.903Z,6.99
2016-11-21T03:11:25.516Z,6.95
2016-11-21T03:12:34.145Z,7.06
2016-11-21T03:13:43.091Z,7.03
2016-11-21T03:14:51.691Z,6.95
2016-11-21T03:16:00.313Z,7.02
2016-11-21T03:17:08.976Z,6.98
2016-11-21T03:18:17.618Z,6.92
2016-11-21T03:19:26.239Z,6.98
2016-11-21T03:20:34.885Z,7.02
2016-11-21T03:21:43.495Z,6.94
2016-11-21T03:22:52.435Z,6.97
2016-11-21T03:24:01.049Z,6.87
2016-11-21T03:25:09.675Z,6.94
2016-11-21T03:26:18.298Z,6.8
2016-11-21T03:27:26.895Z,6.8
2016-11-21T03:28:35.492Z,6.85
2016-11-21T03:29:44.404Z,6.76
2016-11-21T03:30:53.037Z,6.71
2016-11-21T03:32:01.672Z,6.76
2016-11-21T03:33:10.293Z,6.8
2016-11-21T03:34:18.929Z,6.8
2016-11-21T03:35:27.559Z,6.76
2016-11-21T03:36:36.194Z,6.76
2016-11-21T03:37:44.831Z,6.64
2016-11-21T03:38:53.448Z,6.71
2016-11-21T03:40:02.074Z,6.73
2016-11-21T03:41:10.690Z,6.69
2016-11-21T03:42:19.316Z,6.7
2016-11-21T03:43:27.932Z,6.74
2016-11-21T03:44:36.547Z,6.59
2016-11-21T03:45:45.204Z,6.59
2016-11-21T03:46:53.828Z,6.51
2016-11-21T03:48:02.450Z,6.37
2016-11-21T03:49:11.074Z,6.25
2016-11-21T03:50:19.709Z,6.22
2016-11-21T03:51:28.342Z,6.3
2016-11-21T03:52:36.977Z,6.22
2016-11-21T03:53:45.583Z,6.22
2016-11-21T03:54:54.222Z,6.14
2016-11-21T03:56:02.869Z,6.14
2016-11-21T03:57:11.525Z,6.14
2016-11-21T03:58:20.146Z,6
2016-11-21T03:59:29.078Z,6.01
2016-11-21T04:00:37.724Z,6.06
2016-11-21T04:01:46.350Z,6.09
2016-11-21T04:02:54.951Z,6.01
2016-11-21T04:04:03.575Z,5.97
2016-11-21T04:05:12.216Z,6.01
2016-11-21T04:06:20.859Z,5.76
2016-11-21T04:07:29.513Z,5.81
2016-11-21T04:08:38.147Z,5.74
2016-11-21T04:09:46.772Z,5.64
2016-11-21T04:10:55.419Z,5.58
2016-11-21T04:12:04.048Z,5.58
2016-11-21T04:13:12.669Z,5.46
2016-11-21T04:14:21.307Z,5.46
2016-11-21T04:15:29.936Z,5.4
2016-11-21T04:16:38.558Z,5.39
2016-11-21T04:17:47.174Z,5.42
2016-11-21T04:18:55.824Z,5.4
2016-11-21T04:20:04.469Z,5.43
2016-11-21T04:21:13.116Z,5.35
2016-11-21T04:22:21.776Z,5.48
2016-11-21T04:23:30.396Z,5.51
2016-11-21T04:24:39.004Z,5.39
2016-11-21T04:25:47.642Z,5.42
2016-11-21T04:26:56.296Z,5.27
2016-11-21T04:28:04.931Z,5.28
2016-11-21T04:29:13.609Z,5.27
2016-11-21T04:30:22.231Z,5.31
2016-11-21T04:31:30.853Z,5.38
2016-11-21T04:32:39.469Z,5.49
2016-11-21T04:33:48.090Z,5.42
2016-11-21T04:34:56.721Z,5.38
2016-11-21T04:36:05.353Z,5.27
2016-11-21T04:37:13.986Z,5.25
2016-11-21T04:38:22.603Z,5.15
2016-11-21T04:39:31.221Z,5.06
2016-11-21T04:40:39.846Z,5.15
2016-11-21T04:41:48.463Z,5.06
2016-11-21T04:42:57.107Z,5.09
2016-11-21T04:44:05.726Z,5.09
2016-11-21T04:45:14.347Z,5.18
2016-11-21T04:46:22.976Z,5.33
2016-11-21T04:47:31.614Z,5.31
2016-11-21T04:48:40.268Z,5.36
2016-11-21T04:49:48.907Z,5.25
2016-11-21T04:50:57.553Z,5.18
2016-11-21T04:52:06.179Z,5.27
2016-11-21T04:53:14.785Z,5.24
2016-11-21T04:54:23.421Z,5.17
2016-11-21T04:55:32.037Z,5.17
2016-11-21T04:56:40.666Z,5.06
2016-11-21T04:57:49.287Z,4.86
2016-11-21T04:58:57.884Z,4.94
2016-11-21T05:00:06.529Z,4.89
2016-11-21T05:01:15.118Z,4.91
2016-11-21T05:02:23.752Z,4.92
2016-11-21T05:03:32.398Z,4.8
2016-11-21T05:04:41.020Z,4.86
2016-11-21T05:05:49.660Z,4.86
2016-11-21T05:06:58.286Z,4.8
2016-11-21T05:08:06.924Z,4.85
2016-11-21T05:09:15.603Z,4.91
2016-11-21T05:10:24.241Z,4.88
2016-11-21T05:11:32.887Z,5
2016-11-21T05:12:41.528Z,5.13
2016-11-21T05:13:50.175Z,5.12
2016-11-21T05:14:58.820Z,4.88
2016-11-21T05:16:07.424Z,4.85
2016-11-21T05:17:16.046Z,4.97
2016-11-21T05:18:24.672Z,5.06
2016-11-21T05:19:33.306Z,5.03
2016-11-21T05:20:41.915Z,4.86
2016-11-21T05:21:50.559Z,5.04
2016-11-21T05:22:59.193Z,5.02
2016-11-21T05:24:07.797Z,4.88
2016-11-21T05:25:16.424Z,4.86
2016-11-21T05:26:25.057Z,4.88
2016-11-21T05:27:33.686Z,4.89
2016-11-21T05:28:42.311Z,4.96
2016-11-21T05:29:50.945Z,4.96
2016-11-21T05:30:59.574Z,4.96
2016-11-21T05:32:08.192Z,5.06
2016-11-21T05:33:16.867Z,5.12
2016-11-21T05:34:25.512Z,5.02
2016-11-21T05:35:34.135Z,5.12
2016-11-21T05:36:42.759Z,5.04
2016-11-21T05:37:51.380Z,5
2016-11-21T05:39:00.026Z,5.07
2016-11-21T05:40:08.667Z,5.03
2016-11-21T05:41:17.285Z,4.96
2016-11-21T05:42:25.931Z,5.04
2016-11-21T05:43:34.535Z,4.99
2016-11-21T05:44:43.170Z,4.99
2016-11-21T05:45:51.790Z,4.96
2016-11-21T05:47:00.387Z,4.82
2016-11-21T05:48:09.033Z,4.77
2016-11-21T05:49:17.638Z,4.8
2016-11-21T05:50:26.250Z,4.84
2016-11-21T05:51:34.876Z,4.8
2016-11-21T05:52:43.497Z,4.73
2016-11-21T05:53:52.121Z,4.7
2016-11-21T05:55:00.736Z,4.58
2016-11-21T05:56:09.371Z,4.51
2016-11-21T05:57:18.009Z,4.5
2016-11-21T05:58:26.627Z,4.45
2016-11-21T05:59:35.245Z,4.33
2016-11-21T06:00:43.895Z,4.37
2016-11-21T06:01:52.496Z,4.34
2016-11-21T06:03:01.114Z,4.32
2016-11-21T06:04:09.761Z,4.16
2016-11-21T06:05:18.403Z,4.4
2016-11-21T06:06:27.050Z,4.36
2016-11-21T06:07:35.666Z,4.37
2016-11-21T06:08:44.295Z,4.33
2016-11-21T06:09:52.941Z,4.27
2016-11-21T06:11:01.843Z,4.44
2016-11-21T06:12:10.485Z,4.54
2016-11-21T06:13:19.079Z,4.44
2016-11-21T06:14:27.694Z,4.6
2016-11-21T06:15:36.294Z,4.6
2016-11-21T06:16:44.923Z,4.52
2016-11-21T06:17:53.540Z,4.42
2016-11-21T06:19:02.186Z,4.41
2016-11-21T06:20:10.806Z,4.42
2016-11-21T06:21:19.399Z,4.5
2016-11-21T06:22:28.020Z,4.37
2016-11-21T06:23:36.663Z,4.44
2016-11-21T06:24:45.283Z,4.33
2016-11-21T06:25:53.930Z,4.44
2016-11-21T06:27:02.583Z,4.36
2016-11-21T06:28:11.210Z,4.34
2016-11-21T06:29:20.272Z,4.36
2016-11-21T06:30:28.868Z,4.4
2016-11-21T06:31:37.468Z,4.48
2016-11-21T06:32:46.093Z,4.47
2016-11-21T06:33:54.732Z,4.51
2016-11-21T06:35:03.378Z,4.66
2016-11-21T06:36:12.024Z,4.63
2016-11-21T06:37:20.630Z,4.59
2016-11-21T06:38:29.248Z,4.7
2016-11-21T06:39:37.883Z,4.73
2016-11-21T06:40:46.540Z,4.72
2016-11-21T06:41:55.180Z,4.88
2016-11-21T06:43:03.798Z,4.89
2016-11-21T06:44:12.429Z,4.78
2016-11-21T06:45:21.063Z,4.88
2016-11-21T06:46:29.696Z,4.89
2016-11-21T06:47:38.331Z,4.88
2016-11-21T06:48:47.535Z,4.78
2016-11-21T06:49:56.161Z,4.8
2016-11-21T06:51:04.811Z,4.77
2016-11-21T06:52:13.429Z,4.77
2016-11-21T06:53:22.098Z,4.85
2016-11-21T06:54:30.721Z,4.82
2016-11-21T06:55:39.358Z,4.84
2016-11-21T06:56:48.012Z,4.97
2016-11-21T06:57:56.626Z,4.92
2016-11-21T06:59:05.250Z,4.94
2016-11-21T07:00:13.864Z,4.94
2016-11-21T07:01:22.492Z,5.06
2016-11-21T07:02:31.113Z,5.2
2016-11-21T07:03:39.732Z,5.27
2016-11-21T07:04:48.335Z,5.39
2016-11-21T07:05:56.944Z,5.53
2016-11-21T07:07:05.591Z,5.54
2016-11-21T07:08:14.211Z,5.6
2016-11-21T07:09:22.845Z,5.79
2016-11-21T07:10:31.479Z,5.91
2016-11-21T07:11:40.107Z,6.03
2016-11-21T07:12:48.725Z,6.04
2016-11-21T07:13:57.371Z,6.19
2016-11-21T07:15:05.988Z,6.27
2016-11-21T07:16:14.613Z,6.3
2016-11-21T07:17:23.241Z,6.31
2016-11-21T07:18:31.860Z,6.49
2016-11-21T07:19:40.496Z,6.62
2016-11-21T07:20:49.135Z,6.69
2016-11-21T07:21:58.077Z,6.73
2016-11-21T07:23:06.723Z,6.69
2016-11-21T07:24:15.339Z,6.84
2016-11-21T07:25:23.957Z,6.79
2016-11-21T07:26:32.602Z,6.92
2016-11-21T07:27:41.228Z,6.97
2016-11-21T07:28:49.852Z,7.03
2016-11-21T07:29:58.461Z,7.21
2016-11-21T07:31:07.091Z,7.25
2016-11-21T07:32:15.708Z,7.34
2016-11-21T07:33:24.362Z,7.43
2016-11-21T07:34:33.004Z,7.5
2016-11-21T07:35:41.643Z,7.46
2016-11-21T07:36:50.268Z,7.48
2016-11-21T07:37:58.860Z,7.52
2016-11-21T07:39:07.514Z,7.58
2016-11-21T07:40:16.113Z,7.57
2016-11-21T07:41:24.761Z,7.43
2016-11-21T07:42:33.406Z,7.46
2016-11-21T07:43:42.077Z,7.53
2016-11-21T07:44:50.715Z,7.57
2016-11-21T07:45:59.362Z,7.61
2016-11-21T07:47:07.986Z,7.71
2016-11-21T07:48:16.611Z,7.68
2016-11-21T07:49:25.229Z,7.68
2016-11-21T07:50:33.848Z,7.93
2016-11-21T07:51:42.513Z,8
2016-11-21T07:52:51.124Z,8.12
2016-11-21T07:53:59.741Z,8.23
2016-11-21T07:55:08.414Z,8.26
2016-11-21T07:56:17.051Z,8.41
2016-11-21T07:57:25.673Z,8.45
2016-11-21T07:58:34.291Z,8.53
2016-11-21T07:59:42.916Z,8.52
2016-11-21T08:00:51.834Z,8.56
2016-11-21T08:02:00.458Z,8.63
2016-11-21T08:03:09.104Z,8.5
2016-11-21T08:04:17.738Z,8.47
2016-11-21T08:05:26.367Z,8.48
2016-11-21T08:06:35.020Z,8.52
2016-11-21T08:07:43.622Z,8.59
2016-11-21T08:08:52.239Z,8.58
2016-11-21T08:10:00.837Z,8.77
2016-11-21T08:11:09.432Z,8.8
2016-11-21T08:12:18.055Z,8.91
2016-11-21T08:13:26.690Z,8.89
2016-11-21T08:14:35.342Z,8.91
2016-11-21T08:15:43.994Z,9.08
2016-11-21T08:16:52.613Z,9.14
2016-11-21T08:18:01.249Z,9.24
2016-11-21T08:19:09.870Z,9.23
2016-11-21T08:20:18.478Z,9.31
2016-11-21T08:21:27.112Z,9.35
2016-11-21T08:22:35.770Z,9.29
2016-11-21T08:23:44.431Z,9.31
2016-11-21T08:24:53.101Z,9.33
2016-11-21T08:26:01.747Z,9.43
2016-11-21T08:27:10.368Z,9.39
2016-11-21T08:28:18.977Z,9.53
2016-11-21T08:29:27.622Z,9.51
2016-11-21T08:30:36.239Z,9.6
2016-11-21T08:31:44.855Z,9.61
2016-11-21T08:32:53.503Z,9.68
2016-11-21T08:34:02.120Z,9.69
2016-11-21T08:35:10.746Z,9.75
2016-11-21T08:36:19.395Z,9.72
2016-11-21T08:37:27.998Z,9.86
2016-11-21T08:38:36.641Z,9.84
2016-11-21T08:39:45.261Z,9.99
2016-11-21T08:40:53.871Z,9.96
2016-11-21T08:42:02.508Z,10.09
2016-11-21T08:43:11.443Z,10.08
2016-11-21T08:44:20.048Z,10.09
2016-11-21T08:45:28.686Z,10.23
2016-11-21T08:46:37.303Z,10.22
2016-11-21T08:47:45.933Z,10.27
2016-11-21T08:48:54.560Z,10.23
2016-11-21T08:50:03.220Z,10.2
2016-11-21T08:51:11.845Z,10.29
2016-11-21T08:52:20.470Z,10.25
2016-11-21T08:53:29.112Z,10.27
2016-11-21T08:54:37.755Z,10.38
2016-11-21T08:55:46.401Z,10.32
2016-11-21T08:56:55.025Z,10.3
2016-11-21T08:58:03.643Z,10.27
2016-11-21T08:59:12.292Z,10.2
2016-11-21T09:00:20.918Z,10.22
2016-11-21T09:01:29.511Z,10.23
2016-11-21T09:02:38.148Z,10.27
2016-11-21T09:03:46.781Z,10.33
2016-11-21T09:04:55.415Z,10.51
2016-11-21T09:06:04.087Z,10.56
2016-11-21T09:07:12.737Z,10.63
2016-11-21T09:08:21.362Z,10.7
2016-11-21T09:09:29.980Z,10.86
2016-11-21T09:10:38.626Z,10.91
2016-11-21T09:11:47.278Z,10.86
2016-11-21T09:12:55.918Z,10.92
2016-11-21T09:14:04.565Z,10.85
2016-11-21T09:15:13.186Z,10.88
2016-11-21T09:16:21.817Z,10.99
2016-11-21T09:17:30.448Z,10.89
2016-11-21T09:18:39.106Z,10.88
2016-11-21T09:19:47.745Z,10.99
2016-11-21T09:20:56.374Z,10.92
2016-11-21T09:22:04.993Z,11.02
2016-11-21T09:23:13.628Z,10.88
2016-11-21T09:24:22.237Z,10.97
2016-11-21T09:25:30.878Z,10.84
2016-11-21T09:26:39.525Z,10.89
2016-11-21T09:27:48.143Z,10.89
2016-11-21T09:28:56.772Z,10.94
2016-11-21T09:30:05.710Z,10.97
2016-11-21T09:31:14.330Z,11.04
2016-11-21T09:32:22.960Z,11.06
2016-11-21T09:33:31.576Z,11.06
2016-11-21T09:34:40.197Z,11.1
2016-11-21T09:35:48.861Z,11.21
2016-11-21T09:36:57.511Z,11.14
2016-11-21T09:38:06.128Z,11.27
2016-11-21T09:39:14.750Z,11.28
2016-11-21T09:40:23.381Z,11.28
2016-11-21T09:41:32.023Z,11.28
2016-11-21T09:42:40.641Z,11.27
2016-11-21T09:43:49.296Z,11.35
2016-11-21T09:44:57.941Z,11.37
2016-11-21T09:46:06.608Z,11.36
2016-11-21T09:47:15.252Z,11.44
2016-11-21T09:48:23.875Z,11.49
2016-11-21T09:49:32.501Z,11.52
2016-11-21T09:50:41.118Z,11.44
2016-11-21T09:51:49.731Z,11.52
2016-11-21T09:52:58.341Z,11.49
2016-11-21T09:54:06.973Z,11.47
2016-11-21T09:55:15.598Z,11.55
2016-11-21T09:56:24.248Z,11.6
2016-11-21T09:57:32.874Z,11.61
2016-11-21T09:58:41.511Z,11.75
2016-11-21T09:59:50.153Z,11.86
2016-11-21T10:00:58.778Z,12.02
2016-11-21T10:02:07.450Z,11.98
2016-11-21T10:03:16.074Z,12.16
2016-11-21T10:04:24.713Z,12.24
2016-11-21T10:05:33.360Z,12.28
2016-11-21T10:06:42.280Z,12.37
2016-11-21T10:07:50.915Z,12.41
2016-11-21T10:08:59.548Z,12.57
2016-11-21T10:10:08.182Z,12.59
2016-11-21T10:11:16.839Z,12.57
2016-11-21T10:12:25.491Z,12.49
2016-11-21T10:13:34.143Z,12.5
2016-11-21T10:14:42.785Z,12.35
2016-11-21T10:15:51.412Z,12.23
2016-11-21T10:17:00.053Z,12.1
2016-11-21T10:18:08.667Z,11.98
2016-11-21T10:19:17.292Z,11.96
2016-11-21T10:20:25.908Z,11.91
2016-11-21T10:21:34.554Z,11.94
2016-11-21T10:22:43.212Z,11.83
2016-11-21T10:23:51.876Z,11.82
2016-11-21T10:25:00.506Z,11.8
2016-11-21T10:26:09.168Z,11.79
2016-11-21T10:27:17.789Z,11.7
2016-11-21T10:28:26.406Z,11.73
2016-11-21T10:29:47.756Z,11.73
2016-11-21T10:30:56.388Z,11.67
2016-11-21T10:32:05.023Z,11.62
2016-11-21T10:33:13.654Z,11.57
2016-11-21T10:34:22.294Z,11.55
2016-11-21T10:35:30.939Z,11.6
2016-11-21T10:36:39.585Z,11.51
2016-11-21T10:37:48.240Z,11.6
2016-11-21T10:38:56.882Z,11.58
2016-11-21T10:40:05.533Z,11.65
2016-11-21T10:41:14.179Z,11.67
2016-11-21T10:42:22.833Z,11.7
2016-11-21T10:43:31.464Z,11.69
2016-11-21T10:44:40.406Z,11.76
2016-11-21T10:45:49.022Z,11.75
2016-11-21T10:46:57.686Z,11.73
2016-11-21T10:48:06.326Z,11.62
2016-11-21T10:49:14.973Z,11.54
2016-11-21T10:50:23.614Z,11.52
2016-11-21T10:51:32.240Z,11.54
2016-11-21T10:52:40.882Z,11.54
2016-11-21T10:53:49.513Z,11.47
2016-11-21T10:54:58.153Z,11.52
2016-11-21T10:56:06.795Z,11.4
2016-11-21T10:57:15.720Z,11.43
2016-11-21T10:58:24.392Z,11.47
2016-11-21T10:59:33.040Z,11.62
2016-11-21T11:00:42.001Z,11.67
2016-11-21T11:01:50.630Z,11.65
2016-11-21T11:02:59.300Z,11.72
2016-11-21T11:04:07.926Z,11.67
2016-11-21T11:05:16.567Z,11.65
2016-11-21T11:06:25.207Z,11.73
2016-11-21T11:07:33.856Z,11.73
2016-11-21T11:08:42.488Z,11.7
2016-11-21T11:09:51.123Z,11.57
2016-11-21T11:11:00.079Z,11.7
2016-11-21T11:12:08.720Z,11.64
2016-11-21T11:13:17.369Z,11.62
2016-11-21T11:14:26.004Z,11.67
2016-11-21T11:15:34.654Z,11.73
2016-11-21T11:16:43.283Z,11.73
2016-11-21T11:17:51.931Z,11.85
2016-11-21T11:19:00.584Z,11.91
2016-11-21T11:20:09.218Z,11.94
2016-11-21T11:21:17.860Z,11.82
2016-11-21T11:22:26.516Z,11.83
2016-11-21T11:23:35.131Z,11.9
2016-11-21T11:24:43.772Z,12.02
2016-11-21T11:25:52.415Z,12.14
2016-11-21T11:27:01.059Z,12.17
2016-11-21T11:28:09.685Z,12.23
2016-11-21T11:29:18.311Z,12.39
2016-11-21T11:30:26.949Z,12.52
2016-11-21T11:31:35.554Z,12.6
2016-11-21T11:32:44.213Z,12.7
2016-11-21T11:33:52.842Z,12.87
2016-11-21T11:35:01.468Z,12.92
2016-11-21T11:36:10.106Z,12.95
2016-11-21T11:37:18.768Z,12.95
2016-11-21T11:38:27.379Z,13.07
2016-11-21T11:39:35.979Z,13.19
2016-11-21T11:40:44.622Z,13.17
2016-11-21T11:41:53.241Z,13.25
2016-11-21T11:43:01.888Z,13.42
2016-11-21T11:44:10.557Z,13.38
2016-11-21T11:45:19.228Z,13.62
2016-11-21T11:46:27.891Z,13.62
2016-11-21T11:47:36.544Z,13.59
2016-11-21T11:48:45.191Z,13.6
2016-11-21T11:49:53.843Z,13.51
2016-11-21T11:51:02.491Z,13.42
2016-11-21T11:52:11.155Z,13.39
2016-11-21T11:53:19.801Z,13.33
2016-11-21T11:54:28.485Z,13.28
2016-11-21T11:55:37.167Z,13.25
2016-11-21T11:56:45.822Z,13.11
2016-11-21T11:57:54.496Z,12.95
2016-11-21T11:59:03.464Z,12.86
2016-11-21T12:00:12.094Z,12.87
2016-11-21T12:01:20.787Z,12.77
2016-11-21T12:02:29.472Z,12.74
2016-11-21T12:03:38.141Z,12.7
2016-11-21T12:04:46.823Z,12.71
2016-11-21T12:05:55.465Z,12.72
2016-11-21T12:07:04.162Z,12.59
2016-11-21T12:08:12.835Z,12.6
2016-11-21T12:09:21.514Z,12.6
2016-11-21T12:10:30.194Z,12.6
2016-11-21T12:11:38.839Z,12.6
2016-11-21T12:12:47.474Z,12.6
2016-11-21T12:13:56.141Z,12.65
2016-11-21T12:15:04.779Z,12.59
2016-11-21T12:16:13.456Z,12.7
2016-11-21T12:17:22.121Z,12.82
2016-11-21T12:18:30.742Z,12.9
2016-11-21T12:19:39.380Z,13.07
2016-11-21T12:20:48.047Z,13.08
2016-11-21T12:21:56.680Z,13.19
2016-11-21T12:23:05.336Z,13.08
2016-11-21T12:24:14.022Z,13.11
2016-11-21T12:25:22.680Z,13.1
2016-11-21T12:26:31.316Z,12.92
2016-11-21T12:27:39.986Z,13.03
2016-11-21T12:28:48.606Z,12.82
2016-11-21T12:29:57.363Z,12.87
2016-11-21T12:31:06.012Z,12.78
2016-11-21T12:32:14.693Z,12.75
2016-11-21T12:33:23.375Z,12.74
2016-11-21T12:34:32.051Z,12.68
2016-11-21T12:35:40.702Z,12.7
2016-11-21T12:36:49.328Z,12.71
2016-11-21T12:37:57.957Z,12.7
2016-11-21T12:39:06.635Z,12.62
2016-11-21T12:40:15.293Z,12.6
2016-11-21T12:41:23.964Z,12.57
2016-11-21T12:42:32.608Z,12.53
2016-11-21T12:43:41.280Z,12.52
2016-11-21T12:44:49.937Z,12.49
2016-11-21T12:45:58.599Z,12.64
2016-11-21T12:47:07.260Z,12.52
2016-11-21T12:48:15.940Z,12.59
2016-11-21T12:49:24.614Z,12.6
2016-11-21T12:50:33.246Z,12.6
2016-11-21T12:51:41.911Z,12.49
2016-11-21T12:52:50.607Z,12.6
2016-11-21T12:53:59.238Z,12.59
2016-11-21T12:55:07.916Z,12.65
2016-11-21T12:56:16.596Z,12.54
2016-11-21T12:57:25.292Z,12.49
2016-11-21T12:58:33.972Z,12.39
2016-11-21T12:59:42.652Z,12.37
2016-11-21T13:00:51.298Z,12.34
2016-11-21T13:01:59.948Z,12.5
2016-11-21T13:03:08.597Z,12.38
2016-11-21T13:04:17.269Z,12.5
2016-11-21T13:05:25.941Z,12.39
2016-11-21T13:06:34.621Z,12.24
2016-11-21T13:07:43.285Z,12.23
2016-11-21T13:08:51.970Z,12.2
2016-11-21T13:10:00.650Z,12.17
2016-11-21T13:11:09.322Z,11.98
2016-11-21T13:12:18.008Z,12.07
2016-11-21T13:13:26.656Z,11.86
2016-11-21T13:14:35.302Z,11.88
2016-11-21T13:15:43.927Z,11.85
2016-11-21T13:16:52.626Z,11.83
2016-11-21T13:18:01.291Z,11.69
2016-11-21T13:19:09.962Z,11.67
2016-11-21T13:20:18.625Z,11.72
2016-11-21T13:21:27.297Z,11.72
2016-11-21T13:22:35.934Z,11.75
2016-11-21T13:23:44.571Z,11.62
2016-11-21T13:24:53.215Z,11.54
2016-11-21T13:26:01.870Z,11.46
2016-11-21T13:27:10.858Z,11.49
2016-11-21T13:28:19.523Z,11.35
2016-11-21T13:29:28.181Z,11.42
2016-11-21T13:30:36.846Z,11.36
2016-11-21T13:31:45.505Z,11.37
2016-11-21T13:32:54.170Z,11.32
2016-11-21T13:34:02.835Z,11.27
2016-11-21T13:35:11.498Z,11.19
2016-11-21T13:36:20.154Z,11.25
2016-11-21T13:37:28.776Z,11.24
2016-11-21T13:38:37.445Z,11.19
2016-11-21T13:39:46.099Z,11.25
2016-11-21T13:40:54.779Z,11.25
2016-11-21T13:42:03.422Z,11.22
2016-11-21T13:43:12.087Z,11.27
2016-11-21T13:44:20.778Z,11.35
2016-11-21T13:45:29.420Z,11.25
2016-11-21T13:46:38.075Z,11.21
2016-11-21T13:47:46.771Z,11.21
2016-11-21T13:48:55.445Z,11.14
2016-11-21T13:50:04.117Z,11.21
2016-11-21T13:51:12.776Z,11.24
2016-11-21T13:52:21.430Z,11.24
2016-11-21T13:53:30.070Z,11.27
2016-11-21T13:54:38.718Z,11.22
2016-11-21T13:55:47.360Z,11.22
2016-11-21T13:56:56.040Z,11.21
2016-11-21T13:58:04.704Z,11.07
2016-11-21T13:59:13.366Z,11.15
2016-11-21T14:00:22.024Z,11.11
2016-11-21T14:01:30.701Z,11.07
2016-11-21T14:02:39.368Z,10.99
2016-11-21T14:03:48.017Z,11
2016-11-21T14:04:56.656Z,11.1
2016-11-21T14:06:05.320Z,11.04
2016-11-21T14:07:14.001Z,11.03
2016-11-21T14:08:22.668Z,10.96
2016-11-21T14:09:31.339Z,10.91
2016-11-21T14:10:40.011Z,10.88
2016-11-21T14:11:48.681Z,10.85
2016-11-21T14:12:57.330Z,10.91
2016-11-21T14:14:05.974Z,10.81
2016-11-21T14:15:14.653Z,10.78
2016-11-21T14:16:23.366Z,10.73
2016-11-21T14:17:32.015Z,10.61
2016-11-21T14:18:40.635Z,10.64
2016-11-21T14:19:49.273Z,10.63
2016-11-21T14:20:57.937Z,10.63
2016-11-21T14:22:06.609Z,10.51
2016-11-21T14:23:15.252Z,10.45
2016-11-21T14:24:23.889Z,10.51
2016-11-21T14:25:32.539Z,10.36
2016-11-21T14:26:41.181Z,10.3
2016-11-21T14:27:49.844Z,10.2
2016-11-21T14:28:58.452Z,10.22
2016-11-21T14:30:07.121Z,10.08
2016-11-21T14:31:15.774Z,10.08
2016-11-21T14:32:24.404Z,10.07
2016-11-21T14:33:33.041Z,9.97
2016-11-21T14:34:41.689Z,9.96
2016-11-21T14:35:50.319Z,9.93
2016-11-21T14:36:58.971Z,10.04
2016-11-21T14:38:07.651Z,10.05
2016-11-21T14:39:16.314Z,9.94
2016-11-21T14:40:24.972Z,9.9
2016-11-21T14:41:33.638Z,9.9
2016-11-21T14:42:42.294Z,9.89
2016-11-21T14:43:50.951Z,9.81
2016-11-21T14:44:59.596Z,9.72
2016-11-21T14:46:08.257Z,9.68
2016-11-21T14:47:16.903Z,9.54
2016-11-21T14:48:25.582Z,9.61
2016-11-21T14:49:34.255Z,9.54
2016-11-21T14:50:42.907Z,9.48
2016-11-21T14:51:51.555Z,9.4
2016-11-21T14:53:00.199Z,9.43
2016-11-21T14:54:08.870Z,9.31
2016-11-21T14:55:17.534Z,9.4
2016-11-21T14:56:26.206Z,9.33
2016-11-21T14:57:34.858Z,9.21
2016-11-21T14:58:43.496Z,9.31
2016-11-21T14:59:52.145Z,9.29
2016-11-21T15:01:00.797Z,9.21
2016-11-21T15:02:09.454Z,9.21
2016-11-21T15:03:18.107Z,9.21
2016-11-21T15:04:26.778Z,9.26
2016-11-21T15:05:35.416Z,9.18
2016-11-21T15:06:44.053Z,9.21